Amarillo, TX (79120)

1:29 AM CDT on July 07, 2015 (GMT -0500)
Travis middle school | | Change Station
CLOSE
Current Station
Personal Weather Station
Location: Amarillo, TX
Elevation: 3658 ft
Nearby Weather Stations
Active Advisory: Flash Flood Watch

Elev 3658 ft 35.24 °N, 101.81 °W | Updated 1 minute ago

Light Rain
Light Rain
65.1 °F
Feels Like 65.1 °F
N
4.7
Wind Variable Wind from NE

Today
High -- | Low -- °F
--% Chance of Precip.
Yesterday
High -- | Low -- °F
Precip. -- in
6:39 AM 9:04 PM
Waning Gibbous, 68% visible
Pressure 29.99 in
Visibility 8.0 miles
Clouds Overcast 900 ft
Dew Point 63 °F
Humidity 94%
Rainfall 0.00 in
Snow Depth Not available.
UV 0 out of 12
Pollen 2.70 out of 12
Air Quality Not available.
Flu Activity Not available.
METAR KAMA 070553Z AUTO 01015KT 8SM -RA OVC009 19/17 A3014 RMK AO2 CIG 007V015 SLP153 P0000 60072 T01890172 10206 20189 403220189 51015

More Conditions Fewer Conditions

Pressure 29.99 in
Visibility 8.0 miles
Clouds Overcast 900 ft
Dew Point 63 °F
Humidity 94%
Rainfall 0.00 in
Snow Depth Not available.
UV 0 out of 12
Pollen 2.70 out of 12
Air Quality Not available.
Flu Activity Not available.
METAR KAMA 070553Z AUTO 01015KT 8SM -RA OVC009 19/17 A3014 RMK AO2 CIG 007V015 SLP153 P0000 60072 T01890172 10206 20189 403220189 51015

More Conditions Fewer Conditions

10-Day Weather Forecast

×

Almanac

Astronomy

Jul. 07, 2015 Rise Set
Actual Time
Civil Twilight
Nautical Twilight
Astronomical Twilight
Moon
Length of Visible Light
Length of Day
Tomorrow will be .
, % of the Moon is Illuminated

Today's Extremes

State Highs State Lows

Community

WunderPhotos

Upload Photos

1,835,743 photos uploaded!

WunderBlogs® & News

Nearby

Air Quality

  Air Quality AQ Index Pollutant
Not available.

Snow Depth

Station Depth Elevation

Earthquake Activity

City Distance Mag. Time & Date
Minimum magnitude displayed is 2.5.

Coastal Water Temperatures

Place Temperature

Stations

Nearby Weather Stations

Station Location Temp. Windchill Dew Point Humidity Wind Precip. Elev Updated Type
                   
Flash Flood Watch
Statement as of 3:06 PM CDT on July 06, 2015

... Flash Flood Watch remains in effect through Tuesday
afternoon...

The Flash Flood Watch continues for

* a portion of Texas... including the following areas...
Armstrong... Carson... Collingsworth... Donley... gray...
Hemphill... Hutchinson... Potter... Randall... Roberts and
Wheeler.

* Through Tuesday afternoon

* thunderstorms with very heavy rainfall will be possible across the
central and southeast Texas Panhandle tonight into Tuesday.

Precautionary/preparedness actions...

A Flash Flood Watch means that conditions may develop that lead
to flash flooding. Flash flooding is a very dangerous situation.

You should monitor later forecasts and be prepared to take action
should flash flood warnings be issued.